Mr. Roland — WDG6848 — position and weather

sailwx.info

Track history (hours):
 
Tides and Currents Weather Stations Pressure Air Temp Water Temp Dewpoint Dewpoint Depression Visibility Wind Speed Wind Dir Waves Ship Positions

Mr. Roland

Owner: T. K. TOWING, INC, MORGAN CITY, LA. More information available from US FCC via Universal Licensing System and Coast Guard Vessel Documentation Center.

Last reported at 2018-May-18 12:25 UTC. Time now 2018-May-24 02:30 UTC.
Position N 29°56' W 091°59'.

Length 20 m; draft 2 m.

Type: Other ship. MMSI: 367561320.

Date/timePositionNaut miles runAvg speedWind from/ knotsBaromVisibWave heightAir tempDewpointWater temp
2018-May-18 12:25N 29°56' W 091°59'0 0.0
2018-May-18 10:52N 29°56' W 091°59'0 0.0
2018-May-18 10:26N 29°56' W 091°59'0 0.0
2018-May-18 10:00N 29°56' W 091°59'0 0.0
2018-May-18 08:47N 29°56' W 091°59'0 0.0
2018-May-18 08:26N 29°56' W 091°59'0 0.0
2018-May-18 08:00N 29°56' W 091°59'0 0.0
2018-May-18 07:26N 29°56' W 091°59'0 0.0
2018-May-18 07:00N 29°56' W 091°59'0 0.0
2018-May-18 04:56N 29°56' W 091°59'0 0.0
2018-May-18 04:30N 29°56' W 091°59'0 0.0
2018-May-17 08:45N 29°56' W 091°59'1 2.3
2018-May-17 08:23N 29°55' W 091°59'3 3.5
2018-May-17 07:39N 29°53' W 091°56'1 4.0
2018-May-17 07:29N 29°53' W 091°56'7 4.7
2018-May-17 05:57N 29°49' W 091°49'14 5.8
2018-May-17 03:33N 29°44' W 091°34'0 6.1
2018-May-17 03:29N 29°44' W 091°34'40 1.7
2018-May-16 04:49N 29°32' W 090°50'2 6.8
2018-May-16 04:28N 29°32' W 090°48'3 5.7
2018-May-16 04:00N 29°34' W 090°45'3 5.2
2018-May-16 03:30N 29°35' W 090°43'2 3.6
2018-May-16 03:00N 29°36' W 090°41'3 6.6
2018-May-16 02:30N 29°35' W 090°38'3 6.1
2018-May-16 02:00N 29°34' W 090°34'3 6.7
2018-May-16 01:30N 29°34' W 090°31'21 6.0
2018-May-15 21:56N 29°44' W 090°09'  
Track history (hours):
 
Tides and Currents Weather Stations Pressure Air Temp Water Temp Dewpoint Dewpoint Depression Visibility Wind Speed Wind Dir Waves Ship Positions

Mr. Roland

Owner: T. K. TOWING, INC, MORGAN CITY, LA. More information available from US FCC via Universal Licensing System and Coast Guard Vessel Documentation Center.

Last reported at 2018-May-18 12:25 UTC. Time now 2018-May-24 02:30 UTC.
Position N 29°56' W 091°59'.

Length 20 m; draft 2 m.

Type: Other ship. MMSI: 367561320.

Date/timePositionNaut miles runAvg speedWind from/ knotsBaromVisibWave heightAir tempDewpointWater temp
2018-May-18 12:25N 29°56' W 091°59'0 0.0
2018-May-18 10:52N 29°56' W 091°59'0 0.0
2018-May-18 10:26N 29°56' W 091°59'0 0.0
2018-May-18 10:00N 29°56' W 091°59'0 0.0
2018-May-18 08:47N 29°56' W 091°59'0 0.0
2018-May-18 08:26N 29°56' W 091°59'0 0.0
2018-May-18 08:00N 29°56' W 091°59'0 0.0
2018-May-18 07:26N 29°56' W 091°59'0 0.0
2018-May-18 07:00N 29°56' W 091°59'0 0.0
2018-May-18 04:56N 29°56' W 091°59'0 0.0
2018-May-18 04:30N 29°56' W 091°59'0 0.0
2018-May-17 08:45N 29°56' W 091°59'1 2.3
2018-May-17 08:23N 29°55' W 091°59'3 3.5
2018-May-17 07:39N 29°53' W 091°56'1 4.0
2018-May-17 07:29N 29°53' W 091°56'7 4.7
2018-May-17 05:57N 29°49' W 091°49'14 5.8
2018-May-17 03:33N 29°44' W 091°34'0 6.1
2018-May-17 03:29N 29°44' W 091°34'40 1.7
2018-May-16 04:49N 29°32' W 090°50'2 6.8
2018-May-16 04:28N 29°32' W 090°48'3 5.7
2018-May-16 04:00N 29°34' W 090°45'3 5.2
2018-May-16 03:30N 29°35' W 090°43'2 3.6
2018-May-16 03:00N 29°36' W 090°41'3 6.6
2018-May-16 02:30N 29°35' W 090°38'3 6.1
2018-May-16 02:00N 29°34' W 090°34'3 6.7
2018-May-16 01:30N 29°34' W 090°31'21 6.0
2018-May-15 21:56N 29°44' W 090°09'  

Dump ship's entire track history